Time;durP1;ratioP1;P1;durP2;ratioP2;P2;SDS_P1;SDS_P2;PMS_P1;PMS_P2;Temp;Humidity;BMP_temperature;BMP_pressure;BME280_temperature;BME280_humidity;BME280_pressure;Samples;Min_cycle;Max_cycle;Signal;HPM_P1;HPM_P2
2022/03/03 00:00:14;;;;;;;26.20;13.30;;;-0.30;99.90;;;;;;4994152;28;20175;-65
2022/03/03 00:02:40;;;;;;;23.10;12.73;;;-0.30;99.90;;;;;;4994091;28;20614;-65
2022/03/03 00:05:07;;;;;;;22.33;11.90;;;-0.20;99.90;;;;;;4993818;28;20169;-65
2022/03/03 00:07:33;;;;;;;23.30;12.53;;;-0.30;99.90;;;;;;4993724;28;20483;-65
2022/03/03 00:09:59;;;;;;;22.43;13.03;;;-0.50;99.90;;;;;;4994138;28;20534;-65
2022/03/03 00:12:25;;;;;;;26.93;13.90;;;-0.50;99.90;;;;;;4994047;28;20293;-66
2022/03/03 00:14:50;;;;;;;26.07;12.83;;;-0.40;99.90;;;;;;4993791;28;20168;-66
2022/03/03 00:17:16;;;;;;;20.60;11.90;;;-0.30;99.90;;;;;;4994116;28;20252;-66
2022/03/03 00:19:42;;;;;;;26.80;13.50;;;-0.40;99.90;;;;;;4994351;28;20189;-67
2022/03/03 00:22:09;;;;;;;23.23;14.03;;;-0.40;99.90;;;;;;4993654;28;20218;-66
2022/03/03 00:24:34;;;;;;;24.47;13.77;;;-0.40;99.90;;;;;;4994166;28;20209;-65
2022/03/03 00:27:00;;;;;;;25.97;13.13;;;-0.50;99.90;;;;;;4994028;28;20322;-65
2022/03/03 00:29:26;;;;;;;23.20;13.90;;;-0.50;99.90;;;;;;4993657;28;20676;-64
2022/03/03 00:31:51;;;;;;;20.90;13.37;;;-0.60;99.90;;;;;;4993885;28;20198;-66
2022/03/03 00:34:17;;;;;;;22.17;13.10;;;-0.60;99.90;;;;;;4993893;28;20185;-64
2022/03/03 00:36:43;;;;;;;19.37;12.93;;;-0.60;99.90;;;;;;4994108;28;20159;-66
2022/03/03 00:39:09;;;;;;;23.43;14.33;;;-0.50;99.90;;;;;;4993701;28;20245;-66
2022/03/03 00:41:35;;;;;;;23.13;12.70;;;-0.50;99.90;;;;;;4994048;28;20263;-67
2022/03/03 00:44:00;;;;;;;22.73;13.13;;;-0.50;99.90;;;;;;4994031;28;20253;-66
2022/03/03 00:46:26;;;;;;;24.30;12.67;;;-0.50;99.90;;;;;;4993680;28;20162;-66
2022/03/03 00:48:54;;;;;;;23.23;12.87;;;-0.50;99.90;;;;;;4978468;28;20186;-68
2022/03/03 00:51:21;;;;;;;25.40;13.60;;;-0.40;99.90;;;;;;4986453;28;20202;-65
2022/03/03 00:53:47;;;;;;;19.67;12.20;;;-0.40;99.90;;;;;;4996919;28;20214;-66
2022/03/03 00:56:13;;;;;;;22.20;12.87;;;-0.40;99.90;;;;;;4997410;28;20476;-65
2022/03/03 00:58:39;;;;;;;26.63;12.27;;;-0.50;99.90;;;;;;4996992;28;20163;-65
2022/03/03 01:01:05;;;;;;;20.60;12.17;;;-0.50;99.90;;;;;;4996558;28;20259;-65
2022/03/03 01:03:31;;;;;;;23.43;12.90;;;-0.60;99.90;;;;;;4997263;28;20670;-65
2022/03/03 01:05:56;;;;;;;23.97;13.67;;;-0.70;99.90;;;;;;5001656;28;20221;-68
2022/03/03 01:08:22;;;;;;;24.43;13.67;;;-0.70;99.90;;;;;;4988664;28;20178;-66
2022/03/03 01:10:48;;;;;;;20.43;12.23;;;-0.70;99.90;;;;;;5006196;28;20181;-65
2022/03/03 01:13:15;;;;;;;27.33;13.93;;;-0.70;99.90;;;;;;5003698;28;20684;-65
2022/03/03 01:15:41;;;;;;;25.13;13.50;;;-0.80;99.90;;;;;;4998145;28;20357;-65
2022/03/03 01:18:07;;;;;;;20.33;12.63;;;-0.80;99.90;;;;;;4996822;28;20238;-67
2022/03/03 01:20:32;;;;;;;21.60;12.23;;;-0.90;99.90;;;;;;4997021;28;20629;-67
2022/03/03 01:22:58;;;;;;;21.50;12.97;;;-1.00;99.90;;;;;;4996011;28;20181;-65
2022/03/03 01:25:24;;;;;;;23.93;12.80;;;-0.90;99.90;;;;;;4996936;28;20296;-67
2022/03/03 01:27:49;;;;;;;23.53;13.23;;;-1.00;99.90;;;;;;4997029;28;20213;-66
2022/03/03 01:30:15;;;;;;;28.43;13.93;;;-1.00;99.90;;;;;;4997328;28;20610;-65
2022/03/03 01:32:41;;;;;;;22.63;13.43;;;-1.00;99.90;;;;;;4996775;28;20643;-64
2022/03/03 01:35:07;;;;;;;25.50;13.87;;;-1.00;99.90;;;;;;4998531;28;20235;-68
2022/03/03 01:37:32;;;;;;;25.30;13.40;;;-1.00;99.90;;;;;;5000565;28;20239;-64
2022/03/03 01:39:58;;;;;;;24.30;12.53;;;-1.00;99.90;;;;;;4981893;28;20210;-66
2022/03/03 01:42:24;;;;;;;25.10;14.00;;;-1.20;99.90;;;;;;4999144;28;20199;-65
2022/03/03 01:44:50;;;;;;;22.43;13.47;;;-1.10;99.90;;;;;;4998318;28;20197;-65
2022/03/03 01:47:22;;;;;;;25.83;14.53;;;-1.10;99.90;;;;;;4996890;28;20170;-66
2022/03/03 01:49:48;;;;;;;21.17;13.17;;;-1.10;99.90;;;;;;4996082;28;20674;-67
2022/03/03 01:52:14;;;;;;;23.87;13.50;;;-1.10;99.90;;;;;;4996222;28;20201;-66
2022/03/03 01:54:40;;;;;;;24.87;13.97;;;-1.10;99.90;;;;;;4995561;28;20213;-66
2022/03/03 01:57:07;;;;;;;21.43;13.30;;;-1.00;99.90;;;;;;4995949;28;20250;-65
2022/03/03 01:59:33;;;;;;;23.07;14.00;;;-1.00;99.90;;;;;;4996737;28;20221;-66
2022/03/03 02:02:00;;;;;;;26.20;14.07;;;-1.00;99.90;;;;;;4994842;28;20581;-65
2022/03/03 02:04:25;;;;;;;27.30;14.80;;;-1.10;99.90;;;;;;4994292;28;20213;-66
2022/03/03 02:06:51;;;;;;;24.93;13.97;;;-1.10;99.90;;;;;;4996261;28;20171;-65
2022/03/03 02:09:17;;;;;;;26.03;13.50;;;-1.00;99.90;;;;;;4996115;28;20233;-67
2022/03/03 02:11:46;;;;;;;24.30;13.70;;;-1.00;99.90;;;;;;4995483;28;20603;-66
2022/03/03 02:14:12;;;;;;;26.37;14.53;;;-1.00;99.90;;;;;;4995595;28;20166;-65
2022/03/03 02:16:39;;;;;;;23.57;13.37;;;-0.90;99.90;;;;;;4995709;28;20217;-67
2022/03/03 02:19:05;;;;;;;23.07;13.67;;;-1.00;99.90;;;;;;4994480;28;20270;-65
2022/03/03 02:21:30;;;;;;;21.37;13.03;;;-1.00;99.90;;;;;;4994694;28;20205;-65
2022/03/03 02:23:56;;;;;;;24.90;14.13;;;-0.90;99.90;;;;;;4995573;28;20174;-64
2022/03/03 02:26:23;;;;;;;24.03;14.10;;;-0.90;99.90;;;;;;4995466;28;20291;-67
2022/03/03 02:28:50;;;;;;;25.70;14.07;;;-0.90;99.90;;;;;;4995468;28;20172;-67
2022/03/03 02:31:16;;;;;;;23.70;13.87;;;-0.90;99.90;;;;;;4995676;28;20233;-65
2022/03/03 02:33:42;;;;;;;20.20;12.40;;;-0.90;99.90;;;;;;4994552;28;20276;-66
2022/03/03 02:36:18;;;;;;;28.33;12.57;;;-0.90;99.90;;;;;;4994957;28;20224;-65
2022/03/03 02:38:49;;;;;;;24.57;13.87;;;-1.00;99.90;;;;;;4995518;28;20165;-65
2022/03/03 02:41:15;;;;;;;24.53;13.43;;;-1.10;99.90;;;;;;4995392;28;20649;-67
2022/03/03 02:43:41;;;;;;;20.97;12.80;;;-1.10;99.90;;;;;;4995008;28;20222;-65
2022/03/03 02:46:07;;;;;;;19.90;12.37;;;-1.20;99.90;;;;;;4994857;28;20614;-67
2022/03/03 02:48:32;;;;;;;22.00;12.87;;;-1.10;99.90;;;;;;4995367;28;20241;-66
2022/03/03 02:50:58;;;;;;;24.00;12.97;;;-1.10;99.90;;;;;;4994014;28;20187;-66
2022/03/03 02:53:24;;;;;;;23.97;13.00;;;-1.20;99.90;;;;;;4977873;28;20264;-65
2022/03/03 02:55:50;;;;;;;24.57;13.43;;;-1.20;99.90;;;;;;4995526;28;20554;-65
2022/03/03 02:58:15;;;;;;;20.90;13.27;;;-1.20;99.90;;;;;;4994966;28;20193;-67
2022/03/03 03:00:44;;;;;;;22.40;12.83;;;-1.20;99.90;;;;;;4994879;28;20177;-65
2022/03/03 03:03:10;;;;;;;25.97;13.57;;;-1.30;99.90;;;;;;4994978;28;20160;-67
2022/03/03 03:05:36;;;;;;;24.47;13.97;;;-1.30;99.90;;;;;;4995057;28;20175;-64
2022/03/03 03:08:03;;;;;;;26.33;13.33;;;-1.30;99.90;;;;;;4995551;28;20169;-67
2022/03/03 03:10:28;;;;;;;21.37;13.07;;;-1.30;99.90;;;;;;4996287;28;20642;-67
2022/03/03 03:12:55;;;;;;;23.67;14.07;;;-1.30;99.90;;;;;;4996269;28;20208;-69
2022/03/03 03:15:20;;;;;;;24.30;13.00;;;-1.30;99.90;;;;;;4996045;28;20179;-67
2022/03/03 03:17:46;;;;;;;26.63;13.67;;;-1.30;99.90;;;;;;4995165;28;20177;-67
2022/03/03 03:20:12;;;;;;;24.20;13.47;;;-1.20;99.90;;;;;;4995245;28;20606;-68
2022/03/03 03:22:38;;;;;;;21.63;12.40;;;-1.30;99.90;;;;;;4996448;28;20222;-65
2022/03/03 03:25:07;;;;;;;21.47;13.00;;;-1.20;99.90;;;;;;4996669;28;20182;-66
2022/03/03 03:27:33;;;;;;;21.03;12.60;;;-1.20;99.90;;;;;;4996791;28;20237;-66
2022/03/03 03:29:59;;;;;;;20.43;12.67;;;-1.30;99.90;;;;;;4996288;28;20171;-66
2022/03/03 03:32:25;;;;;;;18.90;12.33;;;-1.30;99.90;;;;;;4995770;28;20230;-65
2022/03/03 03:34:50;;;;;;;20.90;12.67;;;-1.20;99.90;;;;;;4996140;28;20552;-68
2022/03/03 03:37:16;;;;;;;21.13;13.23;;;-1.20;99.90;;;;;;4994871;28;20170;-65
2022/03/03 03:39:42;;;;;;;20.23;12.73;;;-1.20;99.90;;;;;;4995343;28;20170;-67
2022/03/03 03:42:08;;;;;;;19.60;12.03;;;-1.30;99.90;;;;;;4995508;28;20166;-66
2022/03/03 03:44:35;;;;;;;20.73;11.97;;;-1.20;99.90;;;;;;4996794;28;20652;-67
2022/03/03 03:47:01;;;;;;;19.67;12.17;;;-1.20;99.90;;;;;;5002617;28;20216;-66
2022/03/03 03:49:27;;;;;;;21.00;12.67;;;-1.20;99.90;;;;;;5003570;28;20367;-65
2022/03/03 03:51:53;;;;;;;22.90;12.10;;;-1.30;99.90;;;;;;5001855;28;20194;-67
2022/03/03 03:54:19;;;;;;;21.07;12.07;;;-1.40;99.90;;;;;;5001685;28;20252;-66
2022/03/03 03:56:44;;;;;;;23.00;12.33;;;-1.50;99.90;;;;;;4994829;28;20526;-65
2022/03/03 03:59:10;;;;;;;24.07;12.97;;;-1.50;99.90;;;;;;4994550;28;20527;-66
2022/03/03 04:01:36;;;;;;;23.50;12.33;;;-1.40;99.90;;;;;;4994542;28;20599;-66
2022/03/03 04:04:02;;;;;;;22.97;12.03;;;-1.50;99.90;;;;;;4976742;28;20189;-66
2022/03/03 04:06:28;;;;;;;19.83;12.43;;;-1.50;99.90;;;;;;4994531;28;20170;-66
2022/03/03 04:08:53;;;;;;;21.50;13.57;;;-1.50;99.90;;;;;;4976891;28;20190;-65
2022/03/03 04:11:19;;;;;;;17.63;11.77;;;-1.50;99.90;;;;;;4995322;28;20210;-66
2022/03/03 04:13:45;;;;;;;22.03;12.33;;;-1.60;99.90;;;;;;4995688;28;20202;-66
2022/03/03 04:16:11;;;;;;;20.70;12.07;;;-1.60;99.90;;;;;;4995553;28;20182;-65
2022/03/03 04:18:36;;;;;;;21.87;13.00;;;-1.60;99.90;;;;;;4999504;28;20174;-65
2022/03/03 04:21:02;;;;;;;24.27;12.10;;;-1.70;99.90;;;;;;5000032;28;20250;-67
2022/03/03 04:23:27;;;;;;;25.70;13.57;;;-1.60;99.90;;;;;;4997610;28;20166;-66
2022/03/03 04:25:54;;;;;;;23.30;12.33;;;-1.80;99.90;;;;;;5000468;28;20256;-65
2022/03/03 04:28:19;;;;;;;24.13;12.60;;;-1.80;99.90;;;;;;5002987;28;20251;-64
2022/03/03 04:30:45;;;;;;;18.60;12.13;;;-1.80;99.90;;;;;;5001684;28;20162;-65
2022/03/03 04:33:10;;;;;;;21.73;13.47;;;-1.80;99.90;;;;;;4997336;28;20300;-66
2022/03/03 04:35:36;;;;;;;22.57;12.33;;;-1.80;99.90;;;;;;4998791;28;20260;-66
2022/03/03 04:38:02;;;;;;;22.20;13.03;;;-1.80;99.90;;;;;;4998597;28;20159;-65
2022/03/03 04:40:27;;;;;;;19.80;12.23;;;-1.80;99.90;;;;;;4999373;28;20162;-66
2022/03/03 04:42:53;;;;;;;23.60;12.90;;;-1.90;99.90;;;;;;4998528;28;20250;-65
2022/03/03 04:45:19;;;;;;;21.63;12.50;;;-1.90;99.90;;;;;;4997883;28;20457;-65
2022/03/03 04:47:44;;;;;;;19.60;12.00;;;-1.90;99.90;;;;;;4998019;28;20174;-65
2022/03/03 04:50:10;;;;;;;19.50;11.43;;;-1.90;99.90;;;;;;4998019;28;20173;-66
2022/03/03 04:52:36;;;;;;;20.47;12.70;;;-1.90;99.90;;;;;;4997812;28;20248;-65
2022/03/03 04:55:04;;;;;;;21.60;12.77;;;-1.90;99.90;;;;;;4997509;28;20263;-65
2022/03/03 04:57:30;;;;;;;22.03;12.73;;;-1.90;99.90;;;;;;4997406;28;20221;-66
2022/03/03 04:59:56;;;;;;;23.70;13.60;;;-1.90;99.90;;;;;;4996968;28;20250;-66
2022/03/03 05:02:22;;;;;;;26.47;14.30;;;-1.80;99.90;;;;;;4997814;28;20204;-66
2022/03/03 05:04:47;;;;;;;22.17;12.47;;;-1.80;99.90;;;;;;4998024;28;20665;-65
2022/03/03 05:07:13;;;;;;;18.70;11.93;;;-1.90;99.90;;;;;;4997526;28;20629;-66
2022/03/03 05:09:39;;;;;;;22.10;13.03;;;-2.00;99.90;;;;;;4997346;28;20179;-64
2022/03/03 05:12:05;;;;;;;23.77;14.03;;;-1.90;99.90;;;;;;4997836;28;20256;-67
2022/03/03 05:14:31;;;;;;;20.10;13.73;;;-1.90;99.90;;;;;;4996955;28;20626;-64
2022/03/03 05:16:57;;;;;;;22.33;13.67;;;-2.10;99.90;;;;;;4997923;28;20174;-66
2022/03/03 05:19:22;;;;;;;23.97;13.80;;;-2.00;99.90;;;;;;4998462;28;20249;-66
2022/03/03 05:21:48;;;;;;;20.83;13.07;;;-2.00;99.90;;;;;;4982334;28;20178;-66
2022/03/03 05:24:14;;;;;;;21.77;12.70;;;-2.00;99.90;;;;;;4999428;28;20190;-65
2022/03/03 05:26:39;;;;;;;21.80;13.57;;;-2.00;99.90;;;;;;5001476;28;20316;-68
2022/03/03 05:29:05;;;;;;;27.43;13.23;;;-1.90;99.90;;;;;;5001525;28;20170;-65
2022/03/03 05:31:31;;;;;;;23.27;14.50;;;-1.90;99.90;;;;;;5000732;28;20660;-65
2022/03/03 05:33:56;;;;;;;20.80;13.33;;;-1.80;99.90;;;;;;5000364;28;20166;-65
2022/03/03 05:36:24;;;;;;;26.60;15.43;;;-1.80;99.90;;;;;;4998600;28;20185;-67
2022/03/03 05:38:52;;;;;;;22.90;13.20;;;-1.80;99.90;;;;;;5001444;28;20193;-66
2022/03/03 05:41:17;;;;;;;24.27;13.90;;;-1.80;99.90;;;;;;5001526;28;20171;-67
2022/03/03 05:43:44;;;;;;;22.20;13.57;;;-1.80;99.90;;;;;;5001226;28;20173;-67
2022/03/03 05:46:09;;;;;;;23.60;13.83;;;-1.80;99.90;;;;;;5001201;28;20245;-65
2022/03/03 05:48:35;;;;;;;22.03;14.50;;;-1.80;99.90;;;;;;4998441;28;20202;-65
2022/03/03 05:51:01;;;;;;;23.97;13.77;;;-1.80;99.90;;;;;;5001833;28;20170;-65
2022/03/03 05:53:27;;;;;;;22.30;13.20;;;-1.80;99.90;;;;;;5002110;28;20217;-65
2022/03/03 05:55:56;;;;;;;26.53;12.83;;;-1.90;99.90;;;;;;5002509;28;20226;-65
2022/03/03 05:58:25;;;;;;;23.60;12.63;;;-1.80;99.90;;;;;;5001363;28;20166;-68
2022/03/03 06:00:54;;;;;;;24.80;13.73;;;-1.90;99.90;;;;;;5000806;28;20189;-67
2022/03/03 06:03:21;;;;;;;23.97;14.17;;;-1.90;99.90;;;;;;5001558;28;20189;-65
2022/03/03 06:05:52;;;;;;;34.93;21.20;;;-1.80;99.90;;;;;;5001838;28;20179;-64
2022/03/03 06:08:23;;;;;;;31.07;17.70;;;-1.90;99.90;;;;;;5002013;28;20205;-67
2022/03/03 06:10:53;;;;;;;29.40;15.50;;;-1.80;99.90;;;;;;4998667;28;20186;-64
2022/03/03 06:13:24;;;;;;;23.23;14.13;;;-1.80;99.90;;;;;;5001325;28;20205;-67
2022/03/03 06:15:51;;;;;;;22.53;13.37;;;-1.90;99.90;;;;;;5002490;28;20170;-65
2022/03/03 06:18:26;;;;;;;28.60;15.87;;;-2.00;99.90;;;;;;5002864;28;20594;-64
2022/03/03 06:20:52;;;;;;;27.87;16.13;;;-1.90;99.90;;;;;;5002977;28;20274;-65
2022/03/03 06:23:18;;;;;;;28.03;16.23;;;-1.80;99.90;;;;;;5003230;28;20169;-65
2022/03/03 06:25:44;;;;;;;37.87;23.63;;;-1.70;99.90;;;;;;5003060;28;20240;-65
2022/03/03 06:28:10;;;;;;;32.93;18.73;;;-1.60;99.90;;;;;;5002287;28;20162;-64
2022/03/03 06:30:36;;;;;;;34.97;17.43;;;-1.60;99.90;;;;;;4999804;28;20186;-65
2022/03/03 06:33:03;;;;;;;26.80;16.13;;;-1.60;99.90;;;;;;5002289;28;20272;-64
2022/03/03 06:35:35;;;;;;;28.83;16.07;;;-1.60;99.90;;;;;;5001924;28;20213;-65
2022/03/03 06:38:05;;;;;;;28.30;16.27;;;-1.60;99.90;;;;;;4984065;28;20558;-67
2022/03/03 06:40:31;;;;;;;26.90;14.70;;;-1.50;99.90;;;;;;5004072;28;20167;-64
2022/03/03 06:43:00;;;;;;;22.37;13.77;;;-1.40;99.90;;;;;;5002886;28;20256;-64
2022/03/03 06:45:30;;;;;;;23.53;13.77;;;-1.30;99.90;;;;;;5002820;28;20225;-62
2022/03/03 06:47:59;;;;;;;33.47;17.17;;;-1.30;99.90;;;;;;5002316;28;20170;-64
2022/03/03 06:50:25;;;;;;;24.00;13.43;;;-1.20;99.90;;;;;;5004814;28;20174;-64
2022/03/03 06:52:51;;;;;;;24.37;14.13;;;-1.10;99.90;;;;;;5009570;28;20201;-66
2022/03/03 06:55:22;;;;;;;28.60;16.30;;;-1.00;99.90;;;;;;5002415;28;20178;-64
2022/03/03 06:57:58;;;;;;;32.10;16.27;;;-1.20;99.90;;;;;;5003391;28;20159;-64
2022/03/03 07:00:27;;;;;;;26.47;15.83;;;-1.00;99.90;;;;;;5004348;28;20226;-65
2022/03/03 07:02:53;;;;;;;25.40;13.80;;;-0.90;99.90;;;;;;5004619;28;20174;-66
2022/03/03 07:05:19;;;;;;;24.07;12.87;;;-0.90;99.90;;;;;;5001209;28;20173;-66
2022/03/03 07:07:47;;;;;;;30.07;15.53;;;-0.90;99.90;;;;;;4982553;28;20591;-66
2022/03/03 07:10:15;;;;;;;26.80;13.67;;;-0.90;99.90;;;;;;5000995;28;20181;-68
2022/03/03 07:12:41;;;;;;;23.57;14.20;;;-0.90;99.90;;;;;;4998993;28;20205;-64
2022/03/03 07:15:08;;;;;;;29.97;14.63;;;-0.90;99.90;;;;;;4998113;28;20162;-66
2022/03/03 07:17:53;;;;;;;20.50;11.63;;;-1.10;99.90;;;;;;4997939;28;20248;-64
2022/03/03 07:20:48;;;;;;;22.97;13.00;;;-0.90;99.90;;;;;;4998324;28;20550;-64
2022/03/03 07:23:32;;;;;;;27.07;14.73;;;-0.80;99.90;;;;;;4997244;28;20170;-66
2022/03/03 07:26:00;;;;;;;22.67;12.63;;;-0.80;99.90;;;;;;4995883;28;20237;-66
2022/03/03 07:28:28;;;;;;;26.90;14.20;;;-0.80;99.90;;;;;;4995321;28;20185;-65
2022/03/03 07:30:55;;;;;;;25.93;13.83;;;-0.80;99.90;;;;;;4999285;28;20162;-66
2022/03/03 07:33:45;;;;;;;26.30;14.40;;;-0.80;99.90;;;;;;4999920;28;20206;-67
2022/03/03 07:36:17;;;;;;;22.90;13.60;;;-0.70;99.90;;;;;;4994731;28;20205;-65
2022/03/03 07:38:57;;;;;;;27.47;14.30;;;-0.80;99.90;;;;;;4995336;28;20222;-64
2022/03/03 07:41:25;;;;;;;22.80;13.40;;;-0.50;99.90;;;;;;4994744;28;20256;-65
2022/03/03 07:43:51;;;;;;;22.40;12.70;;;-0.60;99.90;;;;;;4995119;28;20158;-64
2022/03/03 07:46:17;;;;;;;23.83;13.30;;;-0.50;99.90;;;;;;4995816;28;20193;-66
2022/03/03 07:48:45;;;;;;;26.23;14.40;;;-0.40;99.90;;;;;;5000500;28;20170;-67
2022/03/03 07:51:11;;;;;;;26.87;15.83;;;-0.20;99.90;;;;;;4998862;28;20197;-65
2022/03/03 07:53:37;;;;;;;28.20;14.27;;;0.00;99.90;;;;;;4999227;28;20166;-65
2022/03/03 07:56:04;;;;;;;29.90;16.77;;;-0.20;99.90;;;;;;4998444;28;20233;-66
2022/03/03 07:58:33;;;;;;;24.10;13.93;;;-0.10;99.90;;;;;;4999700;28;20174;-64
2022/03/03 08:01:00;;;;;;;26.97;14.20;;;0.00;99.90;;;;;;4977669;28;20182;-64
2022/03/03 08:03:27;;;;;;;27.17;14.17;;;0.00;99.90;;;;;;4979515;28;20177;-64
2022/03/03 08:05:55;;;;;;;20.03;12.00;;;0.30;99.90;;;;;;4998259;28;20178;-65
2022/03/03 08:08:24;;;;;;;23.17;12.97;;;0.30;99.90;;;;;;4999251;28;20163;-63
2022/03/03 08:10:53;;;;;;;22.40;12.63;;;0.20;99.90;;;;;;5000049;28;20166;-63
2022/03/03 08:13:19;;;;;;;23.50;13.00;;;0.50;99.90;;;;;;4998056;28;20241;-64
2022/03/03 08:15:45;;;;;;;16.83;10.63;;;0.60;99.90;;;;;;4998022;28;20173;-65
2022/03/03 08:18:12;;;;;;;19.40;10.60;;;0.70;99.90;;;;;;4998643;28;20494;-64
2022/03/03 08:20:38;;;;;;;18.43;10.30;;;0.70;99.90;;;;;;4997366;28;20555;-65
2022/03/03 08:23:06;;;;;;;19.43;11.63;;;0.80;99.90;;;;;;4997902;28;20272;-64
2022/03/03 08:25:33;;;;;;;20.53;11.57;;;0.70;99.90;;;;;;4998828;28;20608;-64
2022/03/03 08:28:00;;;;;;;19.83;11.73;;;0.80;99.90;;;;;;4999448;28;20245;-62
2022/03/03 08:30:26;;;;;;;19.93;10.77;;;0.90;99.90;;;;;;4999379;28;20174;-64
2022/03/03 08:33:18;;;;;;;21.07;11.33;;;1.00;99.90;;;;;;5017295;28;20753;-63
2022/03/03 08:35:59;;;;;;;18.53;10.80;;;1.10;99.90;;;;;;5017438;28;20193;-65
2022/03/03 08:38:36;;;;;;;18.10;10.77;;;1.30;99.90;;;;;;5017276;28;20161;-65
2022/03/03 08:41:04;;;;;;;18.83;11.60;;;1.50;99.90;;;;;;5017608;28;20168;-63
2022/03/03 08:43:33;;;;;;;18.53;10.60;;;1.70;99.90;;;;;;5017287;28;20162;-63
2022/03/03 08:46:04;;;;;;;25.10;11.90;;;1.80;99.90;;;;;;5019010;28;20312;-65
2022/03/03 08:48:32;;;;;;;15.37;10.17;;;2.00;99.90;;;;;;5017571;28;20648;-63
2022/03/03 08:50:59;;;;;;;21.53;11.53;;;2.00;99.90;;;;;;5018064;28;20170;-64
2022/03/03 08:53:25;;;;;;;17.27;10.60;;;1.90;99.90;;;;;;5019747;28;20208;-63
2022/03/03 08:55:53;;;;;;;14.40;8.70;;;2.10;99.90;;;;;;5017384;28;20253;-64
2022/03/03 08:58:19;;;;;;;21.33;12.50;;;2.40;99.90;;;;;;5019960;28;20249;-64
2022/03/03 09:00:45;;;;;;;21.87;12.77;;;2.60;99.90;;;;;;5017520;28;20494;-64
2022/03/03 09:03:12;;;;;;;19.47;12.73;;;2.60;99.90;;;;;;5017368;28;20166;-65
2022/03/03 09:05:38;;;;;;;19.13;12.27;;;2.70;99.90;;;;;;5018134;28;20181;-65
2022/03/03 09:08:05;;;;;;;24.43;13.53;;;2.90;99.90;;;;;;5016334;28;20161;-64
2022/03/03 09:10:30;;;;;;;17.83;9.93;;;2.90;99.90;;;;;;5017222;28;20635;-64
2022/03/03 09:12:56;;;;;;;23.07;12.03;;;3.10;99.90;;;;;;5016432;28;20201;-64
2022/03/03 09:15:22;;;;;;;22.17;11.30;;;3.20;99.90;;;;;;4998724;28;20185;-65
2022/03/03 09:17:47;;;;;;;16.77;10.90;;;3.30;99.90;;;;;;5016626;28;20172;-63
2022/03/03 09:20:15;;;;;;;21.47;11.17;;;3.40;99.90;;;;;;5016797;28;20716;-65
2022/03/03 09:22:41;;;;;;;19.40;10.87;;;3.50;99.90;;;;;;5017695;28;20165;-64
2022/03/03 09:25:08;;;;;;;18.10;10.70;;;3.70;99.90;;;;;;5017262;28;20185;-64
2022/03/03 09:27:34;;;;;;;23.97;11.70;;;3.90;99.90;;;;;;4998939;28;20323;-71
2022/03/03 09:29:59;;;;;;;22.50;11.43;;;4.10;99.90;;;;;;5000138;28;20269;-67
2022/03/03 09:32:25;;;;;;;19.07;11.13;;;4.30;99.90;;;;;;5017166;28;20198;-65
2022/03/03 09:34:51;;;;;;;19.63;10.47;;;4.50;99.90;;;;;;5021897;28;20178;-64
2022/03/03 09:37:17;;;;;;;19.33;11.43;;;4.50;99.90;;;;;;5021266;28;20467;-67
2022/03/03 09:39:48;;;;;;;22.13;11.70;;;4.40;99.90;;;;;;5020721;28;20205;-64
2022/03/03 09:42:14;;;;;;;25.73;11.43;;;4.60;99.90;;;;;;5019930;28;20223;-65
2022/03/03 09:44:39;;;;;;;20.47;10.63;;;4.40;99.90;;;;;;5017504;28;20176;-64
2022/03/03 09:47:05;;;;;;;24.17;11.83;;;4.60;99.90;;;;;;5019131;28;20228;-63
2022/03/03 09:49:31;;;;;;;24.57;13.83;;;4.50;99.90;;;;;;5018625;28;20166;-63
2022/03/03 09:51:57;;;;;;;28.17;14.47;;;4.70;99.90;;;;;;5018250;28;20287;-65
2022/03/03 09:54:23;;;;;;;21.43;11.77;;;4.80;99.90;;;;;;5021267;28;20167;-66
2022/03/03 09:56:48;;;;;;;23.13;12.07;;;4.80;99.90;;;;;;5022392;28;20217;-64
2022/03/03 09:59:14;;;;;;;23.53;12.20;;;4.90;99.90;;;;;;5005009;28;20247;-64
2022/03/03 10:01:40;;;;;;;19.83;10.83;;;4.90;99.90;;;;;;5020214;28;20170;-63
2022/03/03 10:04:22;;;;;;;23.90;12.07;;;5.00;99.90;;;;;;5023069;28;20166;-65
2022/03/03 10:06:49;;;;;;;24.20;11.50;;;5.20;99.90;;;;;;5020216;28;20232;-65
2022/03/03 10:09:19;;;;;;;21.43;10.53;;;5.30;99.90;;;;;;5019488;28;20167;-65
2022/03/03 10:11:47;;;;;;;22.13;12.00;;;5.00;99.90;;;;;;5002150;28;20646;-64
2022/03/03 10:14:13;;;;;;;22.23;11.47;;;5.10;99.90;;;;;;5020016;28;20169;-67
2022/03/03 10:16:47;;;;;;;17.03;10.60;;;5.30;99.90;;;;;;5021332;28;20158;-65
2022/03/03 10:19:13;;;;;;;19.73;10.80;;;5.40;99.90;;;;;;5019703;28;20176;-64
2022/03/03 10:21:41;;;;;;;22.37;11.77;;;5.60;99.40;;;;;;5019254;28;20187;-64
2022/03/03 10:24:19;;;;;;;22.90;10.70;;;5.50;99.50;;;;;;5016127;28;20176;-69
2022/03/03 10:26:46;;;;;;;17.43;10.30;;;5.60;99.10;;;;;;5016669;28;20367;-64
2022/03/03 10:29:16;;;;;;;20.50;10.73;;;5.60;98.70;;;;;;5016700;28;20601;-64
2022/03/03 10:31:50;;;;;;;21.90;11.27;;;5.60;99.20;;;;;;5017614;28;20205;-65
2022/03/03 10:34:20;;;;;;;22.13;12.03;;;5.90;99.00;;;;;;5016520;28;20561;-64
2022/03/03 10:36:55;;;;;;;21.83;12.43;;;6.00;96.90;;;;;;5015988;28;20185;-64
2022/03/03 10:39:21;;;;;;;21.73;11.80;;;6.00;98.10;;;;;;5016642;28;20169;-65
2022/03/03 10:41:46;;;;;;;21.83;11.93;;;6.00;97.30;;;;;;5019439;28;20176;-65
2022/03/03 10:44:31;;;;;;;22.30;12.13;;;6.20;97.00;;;;;;5019242;28;20588;-69
2022/03/03 10:47:11;;;;;;;17.47;11.27;;;6.20;96.50;;;;;;5018775;28;20245;-65
2022/03/03 10:49:52;;;;;;;25.30;12.30;;;6.20;95.40;;;;;;5014831;28;20685;-66
2022/03/03 10:52:35;;;;;;;20.77;11.10;;;6.20;96.10;;;;;;5014659;28;20611;-64
2022/03/03 10:55:08;;;;;;;21.00;11.57;;;6.20;94.70;;;;;;5014374;28;20162;-65
2022/03/03 10:57:42;;;;;;;18.77;10.73;;;6.30;94.20;;;;;;5014306;28;20505;-63
2022/03/03 11:00:13;;;;;;;22.87;11.30;;;6.40;92.70;;;;;;5014538;28;20173;-64
2022/03/03 11:02:41;;;;;;;20.50;11.20;;;6.60;91.30;;;;;;5014720;28;20173;-64
2022/03/03 11:05:09;;;;;;;20.43;11.17;;;6.50;90.00;;;;;;5014426;28;20597;-66
2022/03/03 11:07:36;;;;;;;22.53;11.00;;;6.30;88.30;;;;;;5014533;28;20477;-63
2022/03/03 11:10:03;;;;;;;17.70;10.60;;;6.60;88.50;;;;;;5014807;28;20182;-64
2022/03/03 11:12:29;;;;;;;17.50;10.73;;;6.80;84.30;;;;;;5014000;28;20194;-64
2022/03/03 11:14:56;;;;;;;19.30;10.90;;;6.70;82.90;;;;;;5014145;28;20181;-64
2022/03/03 11:17:22;;;;;;;19.03;10.97;;;6.80;82.00;;;;;;5013782;28;20182;-65
2022/03/03 11:19:51;;;;;;;22.17;11.07;;;6.90;82.10;;;;;;5013824;28;20596;-65
2022/03/03 11:22:17;;;;;;;18.00;10.03;;;6.80;80.60;;;;;;5014446;28;20213;-65
2022/03/03 11:24:43;;;;;;;16.50;8.10;;;6.80;74.90;;;;;;5014287;28;20184;-66
2022/03/03 11:27:09;;;;;;;14.73;8.37;;;7.00;69.60;;;;;;5013601;28;20237;-66
2022/03/03 11:29:38;;;;;;;12.60;8.07;;;7.30;68.20;;;;;;5016971;28;20233;-67
2022/03/03 11:32:14;;;;;;;14.23;8.07;;;7.20;65.10;;;;;;5013531;28;20217;-67
2022/03/03 11:34:43;;;;;;;14.67;8.17;;;7.00;63.30;;;;;;5013643;28;20201;-68
2022/03/03 11:37:24;;;;;;;17.63;8.47;;;7.10;63.50;;;;;;5012875;28;20249;-67
2022/03/03 11:39:57;;;;;;;14.50;9.13;;;7.30;63.60;;;;;;5013388;28;20609;-66
2022/03/03 11:42:24;;;;;;;18.73;9.07;;;7.40;62.70;;;;;;5013371;28;20257;-67
2022/03/03 11:45:18;;;;;;;14.73;8.53;;;7.40;61.90;;;;;;5014043;28;20236;-69
2022/03/03 11:47:46;;;;;;;15.90;8.57;;;7.50;62.00;;;;;;5009837;28;20620;-69
2022/03/03 11:50:17;;;;;;;22.53;9.73;;;7.50;60.40;;;;;;5013352;28;20188;-68
2022/03/03 11:53:02;;;;;;;17.50;9.37;;;7.50;59.10;;;;;;5013650;28;20195;-68
2022/03/03 11:55:49;;;;;;;19.03;9.37;;;7.50;59.00;;;;;;4999842;28;20198;-68
2022/03/03 11:58:20;;;;;;;21.50;9.57;;;7.40;58.70;;;;;;5013772;28;20659;-68
2022/03/03 12:01:05;;;;;;;16.60;9.23;;;7.30;58.60;;;;;;5013286;28;20205;-67
2022/03/03 12:03:33;;;;;;;19.97;8.87;;;7.30;58.80;;;;;;5014305;28;20179;-68
2022/03/03 12:06:04;;;;;;;18.87;8.77;;;7.40;57.30;;;;;;5013776;28;20598;-67
2022/03/03 12:08:33;;;;;;;20.20;8.87;;;7.30;55.60;;;;;;5013588;28;20177;-66
2022/03/03 12:11:02;;;;;;;17.47;9.97;;;7.20;54.40;;;;;;4995831;28;20614;-66
2022/03/03 12:13:40;;;;;;;16.57;9.33;;;7.20;54.70;;;;;;5013230;28;20189;-68
2022/03/03 12:16:17;;;;;;;14.57;8.43;;;7.40;54.60;;;;;;5013260;28;20173;-66
2022/03/03 12:18:44;;;;;;;18.00;8.70;;;7.40;54.20;;;;;;5014228;28;20169;-69
2022/03/03 12:21:34;;;;;;;14.63;8.37;;;7.50;53.90;;;;;;5019724;28;20171;-68
2022/03/03 12:24:17;;;;;;;13.77;8.23;;;7.30;55.00;;;;;;5008823;28;20226;-68
2022/03/03 12:26:55;;;;;;;17.47;8.97;;;7.40;55.20;;;;;;5018271;28;20307;-67
2022/03/03 12:29:48;;;;;;;19.40;8.70;;;7.30;55.70;;;;;;5016345;28;20212;-68
2022/03/03 12:32:34;;;;;;;15.90;8.40;;;7.50;57.50;;;;;;5013457;28;20190;-66
2022/03/03 12:35:22;;;;;;;20.27;10.13;;;7.50;58.60;;;;;;5013486;28;20177;-66